createdAt,value
2023-05-25T00:01:02.516Z,74.32
2023-05-25T00:06:05.778Z,73.98
2023-05-25T00:11:07.429Z,73.76
2023-05-25T00:16:08.965Z,73.55
2023-05-25T00:21:10.863Z,74.27
2023-05-25T00:26:12.473Z,73.98
2023-05-25T00:31:14.135Z,74.52
2023-05-25T00:36:15.867Z,74.83
2023-05-25T00:41:18.653Z,74.43
2023-05-25T00:46:20.381Z,74.96
2023-05-25T00:51:22.591Z,75.10
2023-05-25T00:56:29.196Z,74.84
2023-05-25T01:01:40.080Z,75.55
2023-05-25T01:06:47.305Z,76.39
2023-05-25T01:11:51.428Z,75.60
2023-05-25T01:16:55.252Z,76.34
2023-05-25T01:22:32.713Z,77.11
2023-05-25T01:27:44.006Z,76.85
2023-05-25T01:32:46.478Z,77.97
2023-05-25T01:37:49.937Z,77.76
2023-05-25T01:42:51.489Z,78.51
2023-05-25T01:48:22.331Z,77.39
2023-05-25T01:53:30.375Z,78.98
2023-05-25T01:58:38.913Z,78.42
2023-05-25T02:03:42.241Z,78.95
2023-05-25T02:08:46.659Z,78.20
2023-05-25T02:13:48.270Z,79.39
2023-05-25T02:18:51.023Z,79.00
2023-05-25T02:23:54.117Z,79.34
2023-05-25T02:28:55.599Z,79.07
2023-05-25T02:33:57.989Z,77.80
2023-05-25T02:38:59.593Z,77.46
2023-05-25T02:44:01.127Z,77.72
2023-05-25T02:49:02.800Z,79.38
2023-05-25T02:54:04.468Z,79.61
2023-05-25T02:59:06.028Z,78.66
2023-05-25T03:04:07.874Z,79.95
2023-05-25T03:09:10.014Z,79.41
2023-05-25T03:14:11.646Z,79.50
2023-05-25T03:19:13.532Z,79.20
2023-05-25T03:24:15.108Z,79.64
2023-05-25T03:29:16.712Z,79.76
2023-05-25T03:34:18.326Z,78.70
2023-05-25T03:39:22.165Z,79.47
2023-05-25T03:44:24.429Z,79.59
2023-05-25T03:49:28.063Z,79.73
2023-05-25T03:54:29.657Z,78.83
2023-05-25T03:59:31.470Z,80.05
2023-05-25T04:04:33.096Z,80.31
2023-05-25T04:09:34.734Z,80.83
2023-05-25T04:14:36.356Z,81.84
2023-05-25T04:19:37.937Z,80.50
2023-05-25T04:24:39.459Z,80.15
2023-05-25T04:29:41.814Z,79.82
2023-05-25T04:34:46.825Z,79.19
2023-05-25T04:39:48.524Z,79.60
2023-05-25T04:44:55.870Z,79.68
2023-05-25T04:49:57.621Z,79.66
2023-05-25T04:54:59.312Z,78.95
2023-05-25T05:00:01.065Z,78.96
2023-05-25T05:05:02.717Z,78.75
2023-05-25T05:10:05.306Z,78.30
2023-05-25T05:15:07.844Z,77.57
2023-05-25T05:20:09.729Z,78.11
2023-05-25T05:25:11.600Z,78.93
2023-05-25T05:30:13.437Z,79.00
2023-05-25T05:35:17.381Z,77.23
2023-05-25T05:40:19.190Z,77.27
2023-05-25T05:45:21.533Z,77.12
2023-05-25T05:50:24.660Z,77.05
2023-05-25T05:55:26.524Z,76.47
2023-05-25T06:00:28.964Z,76.42
2023-05-25T06:05:30.506Z,77.03
2023-05-25T06:10:32.095Z,77.17
2023-05-25T06:15:33.990Z,76.88
2023-05-25T06:20:35.984Z,76.05
2023-05-25T06:25:37.547Z,75.74
2023-05-25T06:30:39.569Z,76.02
2023-05-25T06:35:43.557Z,75.61
2023-05-25T06:40:45.426Z,75.58
2023-05-25T06:45:48.389Z,75.65
2023-05-25T06:50:50.124Z,75.53
2023-05-25T06:55:51.886Z,76.08
2023-05-25T07:00:53.852Z,75.94
2023-05-25T07:05:55.510Z,75.69
2023-05-25T07:10:57.091Z,75.15
2023-05-25T07:15:58.824Z,75.16
2023-05-25T07:21:00.460Z,74.76
2023-05-25T07:26:05.021Z,74.77
2023-05-25T07:31:08.875Z,74.37
2023-05-25T07:36:10.641Z,74.27
2023-05-25T07:41:13.477Z,74.39
2023-05-25T07:46:17.265Z,73.41
2023-05-25T07:51:18.928Z,72.92
2023-05-25T07:56:20.675Z,72.18
2023-05-25T08:01:24.922Z,71.60
2023-05-25T08:06:27.938Z,71.55
2023-05-25T08:11:29.586Z,70.69
2023-05-25T08:16:31.186Z,70.22
2023-05-25T08:21:35.202Z,69.52
2023-05-25T08:26:53.223Z,69.19
2023-05-25T08:31:56.002Z,68.03
2023-05-25T08:36:58.019Z,67.77
2023-05-25T08:42:00.178Z,66.58
2023-05-25T08:47:07.313Z,66.45
2023-05-25T08:52:15.032Z,66.11
2023-05-25T08:57:26.205Z,63.77
2023-05-25T09:02:56.749Z,62.43
2023-05-25T09:07:59.110Z,63.32
2023-05-25T09:13:12.828Z,63.69
2023-05-25T09:18:21.889Z,62.24
2023-05-25T09:23:23.898Z,62.31
2023-05-25T09:28:27.589Z,62.68
2023-05-25T09:33:30.161Z,62.38
2023-05-25T09:38:33.984Z,62.03
2023-05-25T09:43:44.645Z,63.05
2023-05-25T09:48:53.499Z,62.19
2023-05-25T09:53:55.160Z,62.50
2023-05-25T09:58:57.181Z,62.48
2023-05-25T10:04:04.606Z,62.11
2023-05-25T10:09:11.820Z,61.62
2023-05-25T10:14:20.088Z,62.41
2023-05-25T10:19:45.706Z,62.64
2023-05-25T10:24:56.364Z,62.23
2023-05-25T10:30:02.023Z,61.98
2023-05-25T10:35:07.335Z,61.37
2023-05-25T10:40:10.146Z,60.77
2023-05-25T10:45:13.182Z,60.82
2023-05-25T10:50:29.641Z,60.75
2023-05-25T10:55:48.532Z,60.98
2023-05-25T11:01:06.705Z,60.79
2023-05-25T11:06:10.614Z,59.29
2023-05-25T11:11:12.196Z,59.43
2023-05-25T11:16:34.576Z,58.96
2023-05-25T11:21:36.222Z,57.81
2023-05-25T11:26:37.986Z,57.91
2023-05-25T11:31:43.390Z,57.64
2023-05-25T11:36:45.732Z,58.37
2023-05-25T11:41:56.098Z,58.74
2023-05-25T11:47:02.190Z,58.23
2023-05-25T11:52:09.136Z,57.50
2023-05-25T11:57:18.566Z,56.27
2023-05-25T12:02:21.436Z,55.23
2023-05-25T12:07:23.975Z,55.29
2023-05-25T12:12:25.704Z,54.95
2023-05-25T12:17:27.313Z,53.58
2023-05-25T12:22:29.078Z,55.32
2023-05-25T12:27:31.042Z,53.67
2023-05-25T12:32:32.648Z,53.67
2023-05-25T12:37:34.678Z,53.28
2023-05-25T12:42:36.509Z,53.03
2023-05-25T12:47:38.183Z,54.19
2023-05-25T12:52:44.414Z,53.50
2023-05-25T12:57:47.277Z,54.15
2023-05-25T13:02:50.536Z,53.45
2023-05-25T13:07:54.317Z,54.20
2023-05-25T13:12:58.422Z,54.36
2023-05-25T13:18:00.263Z,54.49
2023-05-25T13:23:03.390Z,53.48
2023-05-25T13:28:06.389Z,54.43
2023-05-25T13:33:08.641Z,54.74
2023-05-25T13:38:10.785Z,55.23
2023-05-25T13:43:12.280Z,55.08
2023-05-25T13:48:13.979Z,55.18
2023-05-25T13:53:15.842Z,54.71
2023-05-25T13:58:17.395Z,53.38
2023-05-25T14:03:19.025Z,53.60
2023-05-25T14:08:20.765Z,53.73
2023-05-25T14:13:22.475Z,54.17
2023-05-25T14:18:24.387Z,54.75
2023-05-25T14:23:25.898Z,55.09
2023-05-25T14:28:27.934Z,55.53
2023-05-25T14:33:29.875Z,55.86
2023-05-25T14:38:32.646Z,55.17
2023-05-25T14:43:34.981Z,54.40
2023-05-25T14:48:36.686Z,53.64
2023-05-25T14:53:38.397Z,52.96
2023-05-25T14:58:39.951Z,51.67
2023-05-25T15:03:41.554Z,50.15
2023-05-25T15:08:43.241Z,50.29
2023-05-25T15:13:45.518Z,49.39
2023-05-25T15:18:47.048Z,49.36
2023-05-25T15:23:48.638Z,48.37
2023-05-25T15:28:50.244Z,48.21
2023-05-25T15:33:58.293Z,48.14
2023-05-25T15:39:00.755Z,47.99
2023-05-25T15:44:02.682Z,48.47
2023-05-25T15:49:10.814Z,46.71
2023-05-25T15:54:14.558Z,46.99
2023-05-25T15:59:16.567Z,46.02
2023-05-25T16:04:19.250Z,46.99
2023-05-25T16:09:20.993Z,47.16
2023-05-25T16:14:22.558Z,47.78
2023-05-25T16:19:29.836Z,48.46
2023-05-25T16:24:31.420Z,48.59
2023-05-25T16:29:33.296Z,48.30
2023-05-25T16:34:34.962Z,49.26
2023-05-25T16:39:36.531Z,49.30
2023-05-25T16:44:38.105Z,49.32
2023-05-25T16:49:39.666Z,49.70
2023-05-25T16:54:41.293Z,49.27
2023-05-25T16:59:42.878Z,49.45
2023-05-25T17:04:44.448Z,49.79
2023-05-25T17:09:46.004Z,49.69
2023-05-25T17:14:47.593Z,50.49
2023-05-25T17:19:49.157Z,50.75
2023-05-25T17:24:50.937Z,51.27
2023-05-25T17:29:53.026Z,51.77
2023-05-25T17:34:54.449Z,52.32
2023-05-25T17:39:55.986Z,52.45
2023-05-25T17:44:57.554Z,53.02
2023-05-25T17:49:59.086Z,53.05
2023-05-25T17:55:00.813Z,53.50
2023-05-25T18:00:02.631Z,53.91
2023-05-25T18:05:04.389Z,54.12
2023-05-25T18:10:06.694Z,54.37
2023-05-25T18:15:08.716Z,54.87
2023-05-25T18:20:11.514Z,55.10
2023-05-25T18:25:13.198Z,55.57
2023-05-25T18:30:15.420Z,55.95
2023-05-25T18:35:17.326Z,56.09
2023-05-25T18:40:18.900Z,56.53
2023-05-25T18:45:20.464Z,57.16
2023-05-25T18:50:22.117Z,57.30
2023-05-25T18:55:23.712Z,57.83
2023-05-25T19:00:31.561Z,58.00
2023-05-25T19:05:33.095Z,58.56
2023-05-25T19:10:34.644Z,58.94
2023-05-25T19:15:36.302Z,59.66
2023-05-25T19:20:37.921Z,59.63
2023-05-25T19:25:39.608Z,60.14
2023-05-25T19:30:42.005Z,60.69
2023-05-25T19:35:43.765Z,60.97
2023-05-25T19:40:45.857Z,61.08
2023-05-25T19:45:47.795Z,61.38
2023-05-25T19:50:49.563Z,61.48
2023-05-25T19:55:51.667Z,61.98
2023-05-25T20:00:53.828Z,62.44
2023-05-25T20:05:56.358Z,62.35
2023-05-25T20:10:57.961Z,62.86
2023-05-25T20:15:59.592Z,63.09
2023-05-25T20:21:01.243Z,62.74
2023-05-25T20:26:02.805Z,62.88
2023-05-25T20:31:05.817Z,63.21
2023-05-25T20:36:07.464Z,63.33
2023-05-25T20:41:09.016Z,63.67
2023-05-25T20:46:11.295Z,65.17
2023-05-25T20:51:14.142Z,66.64
2023-05-25T20:56:15.926Z,65.21
2023-05-25T21:01:17.601Z,64.79
2023-05-25T21:06:19.566Z,64.47
2023-05-25T21:11:22.076Z,64.54
2023-05-25T21:16:23.663Z,64.82
2023-05-25T21:21:25.732Z,65.48
2023-05-25T21:26:28.324Z,66.16
2023-05-25T21:31:29.919Z,65.76
2023-05-25T21:36:32.478Z,65.85
2023-05-25T21:41:34.023Z,65.76
2023-05-25T21:46:36.557Z,65.89
2023-05-25T21:51:38.151Z,66.03
2023-05-25T21:56:39.676Z,66.07
2023-05-25T22:01:41.529Z,66.35
2023-05-25T22:06:43.197Z,66.47
2023-05-25T22:11:44.718Z,66.96
2023-05-25T22:16:46.390Z,69.20
2023-05-25T22:21:48.055Z,69.56
2023-05-25T22:26:49.616Z,70.88
2023-05-25T22:31:51.176Z,73.16
2023-05-25T22:36:52.763Z,74.37
2023-05-25T22:41:54.333Z,73.74
2023-05-25T22:46:55.992Z,73.88
2023-05-25T22:51:57.680Z,74.26
2023-05-25T22:56:59.370Z,73.67
2023-05-25T23:02:00.947Z,73.90
2023-05-25T23:07:02.698Z,72.44
2023-05-25T23:12:04.555Z,74.41
2023-05-25T23:17:06.093Z,73.50
2023-05-25T23:22:07.634Z,75.54
2023-05-25T23:27:09.163Z,75.67
2023-05-25T23:32:10.835Z,75.34
2023-05-25T23:37:12.368Z,76.05
2023-05-25T23:42:15.518Z,75.48
2023-05-25T23:47:17.116Z,75.15
2023-05-25T23:52:18.717Z,75.13
2023-05-25T23:57:20.340Z,75.76
